createdAt,value
2019-05-25T00:03:36.558Z,14.12
2019-05-25T00:06:20.110Z,14.27
2019-05-25T00:09:09.883Z,14.36
2019-05-25T00:12:00.042Z,14.25
2019-05-25T00:15:08.919Z,14.29
2019-05-25T00:17:58.908Z,14.25
2019-05-25T00:20:48.659Z,14.16
2019-05-25T00:23:38.385Z,14.14
2019-05-25T00:26:20.769Z,14.22
2019-05-25T00:29:10.566Z,14.25
2019-05-25T00:32:15.974Z,14.16
2019-05-25T00:34:58.696Z,14.17
2019-05-25T00:37:48.443Z,14.18
2019-05-25T00:40:30.856Z,14.19
2019-05-25T00:43:20.594Z,14.20
2019-05-25T00:49:06.075Z,14.13
2019-05-25T00:51:36.758Z,14.16
2019-05-25T00:54:28.191Z,14.14
2019-05-25T00:57:10.943Z,14.13
2019-05-25T01:00:00.733Z,14.02
2019-05-25T01:02:50.545Z,13.91
2019-05-25T01:05:40.337Z,13.87
2019-05-25T01:08:22.983Z,13.97
2019-05-25T01:11:12.704Z,14.01
2019-05-25T01:17:05.891Z,14.03
2019-05-25T01:19:48.751Z,13.91
2019-05-25T01:22:38.486Z,13.92
2019-05-25T01:25:28.179Z,13.96
2019-05-25T01:28:10.656Z,13.92
2019-05-25T01:31:00.477Z,13.85
2019-05-25T01:33:50.246Z,13.94
2019-05-25T01:36:40.173Z,13.88
2019-05-25T01:39:29.998Z,13.77
2019-05-25T01:45:28.554Z,13.76
2019-05-25T01:48:11.557Z,13.64
2019-05-25T01:51:01.428Z,13.60
2019-05-25T01:53:51.206Z,13.45
2019-05-25T01:56:40.977Z,13.45
2019-05-25T02:02:23.917Z,13.53
2019-05-25T02:05:14.075Z,13.60
2019-05-25T02:08:03.906Z,13.52
2019-05-25T02:11:07.008Z,13.56
2019-05-25T02:13:49.219Z,13.56
2019-05-25T02:16:38.915Z,13.44
2019-05-25T02:19:21.283Z,13.36
2019-05-25T02:22:10.998Z,13.23
2019-05-25T02:24:52.921Z,13.27
2019-05-25T02:27:42.720Z,13.09
2019-05-25T02:30:26.337Z,13.37
2019-05-25T02:33:16.054Z,13.36
2019-05-25T02:35:58.758Z,13.36
2019-05-25T02:38:48.473Z,13.45
2019-05-25T02:41:30.549Z,13.48
2019-05-25T02:47:21.394Z,13.50
2019-05-25T02:50:11.107Z,13.53
2019-05-25T02:52:54.456Z,13.50
2019-05-25T02:55:44.196Z,13.37
2019-05-25T03:04:21.468Z,13.28
2019-05-25T03:07:11.280Z,13.50
2019-05-25T03:09:53.695Z,13.37
2019-05-25T03:18:52.578Z,13.34
2019-05-25T03:21:35.238Z,13.49
2019-05-25T03:24:25.272Z,13.37
2019-05-25T03:30:37.315Z,13.26
2019-05-25T03:33:27.092Z,13.35
2019-05-25T03:36:16.873Z,13.27
2019-05-25T03:39:08.188Z,13.38
2019-05-25T03:41:57.968Z,13.58
2019-05-25T03:44:47.698Z,13.54
2019-05-25T03:50:40.693Z,13.49
2019-05-25T03:53:22.975Z,13.43
2019-05-25T03:56:12.716Z,13.56
2019-05-25T03:58:55.378Z,13.54
2019-05-25T04:01:45.148Z,13.50
2019-05-25T04:04:34.931Z,13.49
2019-05-25T04:07:17.192Z,13.46
2019-05-25T04:13:21.075Z,13.50
2019-05-25T04:16:10.874Z,13.68
2019-05-25T04:19:00.648Z,13.49
2019-05-25T04:22:09.539Z,13.40
2019-05-25T04:24:59.280Z,13.30
2019-05-25T04:27:48.980Z,13.32
2019-05-25T04:30:31.473Z,13.44
2019-05-25T04:33:21.190Z,13.54
2019-05-25T04:36:10.953Z,13.56
2019-05-25T04:39:00.740Z,13.59
2019-05-25T04:41:50.515Z,13.54
2019-05-25T04:44:40.245Z,13.59
2019-05-25T04:47:30.105Z,13.74
2019-05-25T04:50:19.907Z,13.74
2019-05-25T04:53:09.692Z,13.70
2019-05-25T05:01:55.989Z,13.88
2019-05-25T05:04:45.779Z,13.94
2019-05-25T05:07:35.486Z,13.88
2019-05-25T05:10:17.827Z,13.93
2019-05-25T05:12:48.490Z,14.00
2019-05-25T05:18:27.798Z,14.03
2019-05-25T05:20:58.500Z,14.08
2019-05-25T05:23:48.369Z,14.04
2019-05-25T05:26:30.822Z,14.15
2019-05-25T05:29:39.662Z,14.16
2019-05-25T05:32:29.462Z,14.13
2019-05-25T05:35:19.270Z,13.97
2019-05-25T05:38:09.047Z,13.59
2019-05-25T05:41:18.183Z,13.54
2019-05-25T05:44:08.044Z,13.78
2019-05-25T05:50:12.430Z,13.24
2019-05-25T05:52:43.064Z,12.97
2019-05-25T05:55:33.176Z,12.98
2019-05-25T05:58:15.296Z,13.16
2019-05-25T06:00:58.498Z,13.07
2019-05-25T06:03:48.331Z,13.10
2019-05-25T06:06:38.239Z,13.25
2019-05-25T06:09:28.063Z,13.53
2019-05-25T06:12:36.910Z,13.67
2019-05-25T06:15:26.696Z,13.64
2019-05-25T06:18:16.760Z,13.78
2019-05-25T06:21:06.706Z,13.55
2019-05-25T06:23:56.482Z,13.98
2019-05-25T06:26:46.235Z,14.22
2019-05-25T06:29:35.996Z,14.59
2019-05-25T06:32:27.257Z,14.82
2019-05-25T06:38:00.214Z,15.35
2019-05-25T06:53:18.988Z,16.65
2019-05-25T06:56:03.290Z,17.06
2019-05-25T06:58:45.740Z,17.35
2019-05-25T07:01:35.548Z,17.69
2019-05-25T07:04:25.906Z,17.83
2019-05-25T07:07:16.282Z,18.08
2019-05-25T07:10:06.572Z,18.48
2019-05-25T07:12:56.328Z,18.88
2019-05-25T07:15:46.714Z,18.99
2019-05-25T07:18:29.695Z,19.25
2019-05-25T07:21:00.420Z,19.54
2019-05-25T07:23:50.153Z,19.54
2019-05-25T07:26:33.081Z,19.62
2019-05-25T07:29:41.960Z,19.75
2019-05-25T07:32:31.751Z,20.06
2019-05-25T07:35:21.563Z,20.03
2019-05-25T07:38:11.329Z,20.12
2019-05-25T07:41:02.075Z,19.83
2019-05-25T07:44:04.849Z,19.71
2019-05-25T07:46:47.696Z,19.47
2019-05-25T07:49:37.428Z,20.11
2019-05-25T07:52:20.202Z,20.53
2019-05-25T07:55:10.479Z,20.95
2019-05-25T07:57:53.599Z,21.40
2019-05-25T08:00:43.921Z,21.99
2019-05-25T08:03:26.580Z,21.85
2019-05-25T08:06:16.873Z,21.33
2019-05-25T08:09:00.098Z,21.20
2019-05-25T08:11:50.414Z,21.01
2019-05-25T08:14:32.931Z,20.99
2019-05-25T08:17:23.590Z,20.94
2019-05-25T08:20:06.707Z,20.82
2019-05-25T08:22:57.060Z,20.66
2019-05-25T08:25:47.613Z,20.82
2019-05-25T08:28:37.971Z,21.00
2019-05-25T08:31:28.364Z,21.23
2019-05-25T08:34:18.777Z,21.81
2019-05-25T08:37:28.444Z,21.56
2019-05-25T08:40:12.053Z,22.05
2019-05-25T08:42:43.293Z,22.38
2019-05-25T08:45:33.702Z,22.98
2019-05-25T08:48:17.906Z,22.92
2019-05-25T08:51:01.158Z,22.80
2019-05-25T08:53:51.661Z,23.23
2019-05-25T08:56:41.965Z,23.40
2019-05-25T08:59:25.698Z,23.41
2019-05-25T09:02:16.164Z,23.08
2019-05-25T09:05:06.762Z,23.48
2019-05-25T09:07:57.204Z,23.30
2019-05-25T09:10:47.640Z,22.99
2019-05-25T09:13:38.010Z,23.26
2019-05-25T09:16:28.398Z,23.27
2019-05-25T09:19:18.729Z,23.43
2019-05-25T09:22:03.431Z,23.50
2019-05-25T09:24:53.650Z,23.72
2019-05-25T09:27:36.288Z,23.17
2019-05-25T09:30:26.662Z,23.68
2019-05-25T09:33:36.121Z,23.31
2019-05-25T09:36:26.476Z,23.14
2019-05-25T09:41:54.699Z,22.30
2019-05-25T09:44:45.000Z,22.52
2019-05-25T09:47:28.582Z,22.28
2019-05-25T09:50:18.984Z,22.04
2019-05-25T09:53:01.610Z,22.23
2019-05-25T09:55:52.075Z,22.76
2019-05-25T09:58:34.964Z,23.04
2019-05-25T10:01:25.574Z,23.11
2019-05-25T10:04:15.888Z,23.01
2019-05-25T10:07:06.309Z,23.09
2019-05-25T10:09:56.686Z,23.30
2019-05-25T10:12:47.090Z,22.87
2019-05-25T10:15:50.618Z,22.94
2019-05-25T10:18:33.219Z,23.17
2019-05-25T10:21:23.540Z,22.97
2019-05-25T10:24:06.212Z,23.03
2019-05-25T10:26:56.546Z,22.86
2019-05-25T10:29:46.847Z,22.32
2019-05-25T10:32:31.733Z,21.97
2019-05-25T10:35:41.213Z,21.53
2019-05-25T10:38:31.668Z,20.95
2019-05-25T10:41:22.091Z,20.61
2019-05-25T10:44:11.915Z,20.22
2019-05-25T10:47:01.706Z,20.06
2019-05-25T10:49:51.494Z,19.96
2019-05-25T10:52:41.984Z,20.03
2019-05-25T10:58:29.977Z,19.86
2019-05-25T11:01:19.736Z,19.52
2019-05-25T11:04:02.336Z,19.56
2019-05-25T11:06:52.079Z,19.72
2019-05-25T11:09:36.225Z,19.52
2019-05-25T11:12:26.216Z,19.51
2019-05-25T11:15:14.454Z,19.63
2019-05-25T11:18:04.927Z,19.57
2019-05-25T11:20:47.279Z,19.24
2019-05-25T11:23:37.184Z,19.39
2019-05-25T11:26:19.333Z,19.51
2019-05-25T11:29:09.122Z,19.61
2019-05-25T11:31:56.650Z,19.97
2019-05-25T11:34:43.139Z,20.08
2019-05-25T11:37:25.589Z,19.84
2019-05-25T11:40:16.361Z,20.18
2019-05-25T11:42:47.130Z,19.95
2019-05-25T11:45:36.846Z,19.90
2019-05-25T11:51:22.278Z,20.30
2019-05-25T11:54:12.569Z,20.38
2019-05-25T11:56:54.867Z,20.60
2019-05-25T11:59:38.100Z,20.82
2019-05-25T12:02:21.874Z,21.06
2019-05-25T12:05:32.831Z,21.29
2019-05-25T12:08:23.223Z,21.24
2019-05-25T12:11:32.727Z,21.84
2019-05-25T12:14:23.117Z,22.09
2019-05-25T12:17:13.484Z,22.33
2019-05-25T12:20:04.006Z,22.62
2019-05-25T12:23:13.571Z,22.62
2019-05-25T12:25:56.555Z,22.27
2019-05-25T12:28:46.908Z,22.11
2019-05-25T12:31:37.444Z,21.92
2019-05-25T12:34:20.166Z,22.36
2019-05-25T12:37:22.622Z,22.45
2019-05-25T12:40:05.626Z,22.71
2019-05-25T12:42:55.946Z,22.95
2019-05-25T12:45:42.003Z,22.93
2019-05-25T12:48:30.721Z,22.96
2019-05-25T12:51:13.556Z,23.05
2019-05-25T12:54:03.846Z,22.94
2019-05-25T12:56:46.832Z,22.85
2019-05-25T12:59:37.165Z,22.35
2019-05-25T13:02:23.716Z,22.13
2019-05-25T13:05:34.907Z,21.88
2019-05-25T13:08:19.014Z,20.86
2019-05-25T13:11:09.673Z,19.92
2019-05-25T13:13:53.224Z,19.25
2019-05-25T13:16:42.978Z,18.96
2019-05-25T13:19:25.280Z,18.66
2019-05-25T13:22:14.991Z,18.65
2019-05-25T13:24:57.315Z,18.68
2019-05-25T13:27:47.109Z,18.68
2019-05-25T13:30:29.468Z,18.51
2019-05-25T13:33:19.780Z,18.83
2019-05-25T13:36:04.079Z,18.96
2019-05-25T13:38:53.803Z,18.90
2019-05-25T13:41:44.106Z,18.83
2019-05-25T13:44:26.588Z,18.73
2019-05-25T13:47:16.987Z,18.01
2019-05-25T13:50:19.466Z,18.23
2019-05-25T13:53:02.124Z,18.02
2019-05-25T13:56:10.983Z,18.09
2019-05-25T14:01:42.040Z,18.02
2019-05-25T14:04:32.345Z,18.00
2019-05-25T14:07:15.140Z,18.15
2019-05-25T14:10:05.823Z,18.10
2019-05-25T14:13:15.183Z,18.06
2019-05-25T14:16:06.789Z,18.15
2019-05-25T14:18:48.745Z,18.36
2019-05-25T14:21:39.199Z,18.10
2019-05-25T14:24:29.481Z,18.18
2019-05-25T14:27:19.790Z,17.87
2019-05-25T14:30:02.054Z,17.56
2019-05-25T14:32:51.759Z,17.19
2019-05-25T14:35:41.589Z,16.79
2019-05-25T14:38:25.379Z,16.69
2019-05-25T14:41:15.143Z,16.33
2019-05-25T14:44:04.991Z,16.30
2019-05-25T14:46:48.463Z,16.28
2019-05-25T14:49:38.261Z,16.32
2019-05-25T14:52:28.079Z,16.26
2019-05-25T14:55:18.083Z,16.47
2019-05-25T14:58:07.801Z,16.48
2019-05-25T15:00:57.537Z,16.39
2019-05-25T15:03:47.305Z,16.10
2019-05-25T15:06:29.305Z,16.11
2019-05-25T15:09:19.043Z,16.07
2019-05-25T15:12:01.600Z,15.86
2019-05-25T15:14:51.420Z,15.65
2019-05-25T15:17:43.166Z,15.63
2019-05-25T15:20:26.481Z,15.74
2019-05-25T15:23:16.282Z,15.76
2019-05-25T15:26:06.111Z,15.74
2019-05-25T15:28:56.871Z,15.75
2019-05-25T15:31:46.743Z,15.74
2019-05-25T15:34:36.498Z,16.09
2019-05-25T15:37:26.282Z,16.57
2019-05-25T15:40:16.133Z,16.95
2019-05-25T15:43:06.108Z,17.23
2019-05-25T15:46:15.005Z,17.43
2019-05-25T15:48:57.769Z,17.29
2019-05-25T15:51:47.544Z,17.24
2019-05-25T15:54:29.810Z,17.26
2019-05-25T15:57:19.985Z,17.38
2019-05-25T16:00:02.924Z,17.46
2019-05-25T16:05:54.928Z,17.82
2019-05-25T16:11:32.742Z,18.43
2019-05-25T16:14:23.135Z,18.60
2019-05-25T16:17:12.956Z,18.78
2019-05-25T16:20:03.362Z,18.19
2019-05-25T16:22:53.756Z,18.18
2019-05-25T16:25:44.088Z,17.80
2019-05-25T16:28:33.924Z,18.11
2019-05-25T16:31:23.638Z,18.22
2019-05-25T16:34:13.933Z,18.13
2019-05-25T16:37:04.416Z,17.92
2019-05-25T16:39:47.663Z,17.92
2019-05-25T16:42:37.394Z,18.00
2019-05-25T16:45:21.162Z,17.83
2019-05-25T16:48:11.478Z,17.84
2019-05-25T16:50:54.913Z,18.03
2019-05-25T16:53:45.187Z,18.04
2019-05-25T16:56:35.486Z,18.06
2019-05-25T16:59:18.512Z,18.19
2019-05-25T17:02:08.806Z,17.96
2019-05-25T17:04:53.368Z,17.94
2019-05-25T17:07:36.136Z,17.98
2019-05-25T17:10:25.889Z,17.87
2019-05-25T17:13:09.456Z,17.80
2019-05-25T17:15:59.250Z,17.76
2019-05-25T17:18:49.790Z,17.68
2019-05-25T17:21:40.158Z,17.46
2019-05-25T17:24:29.986Z,17.23
2019-05-25T17:27:20.402Z,17.31
2019-05-25T17:30:10.677Z,17.26
2019-05-25T17:33:00.428Z,17.02
2019-05-25T17:35:50.149Z,16.97
2019-05-25T17:38:39.874Z,16.93
2019-05-25T17:41:22.244Z,16.91
2019-05-25T17:44:11.969Z,16.86
2019-05-25T17:46:54.491Z,16.93
2019-05-25T17:49:44.220Z,16.68
2019-05-25T17:52:26.517Z,16.62
2019-05-25T17:55:16.219Z,16.50
2019-05-25T17:57:46.909Z,16.45
2019-05-25T18:00:55.672Z,16.56
2019-05-25T18:03:38.081Z,16.65
2019-05-25T18:06:27.798Z,16.43
2019-05-25T18:09:09.981Z,16.44
2019-05-25T18:11:59.734Z,16.36
2019-05-25T18:14:42.930Z,16.37
2019-05-25T18:20:37.851Z,16.28
2019-05-25T18:23:19.903Z,16.33
2019-05-25T18:26:09.654Z,16.29
2019-05-25T18:28:51.723Z,16.29
2019-05-25T18:31:41.507Z,16.26
2019-05-25T18:34:31.254Z,16.32
2019-05-25T18:37:20.991Z,16.14
2019-05-25T18:40:03.439Z,16.29
2019-05-25T18:42:53.330Z,16.27
2019-05-25T18:45:43.052Z,16.36
2019-05-25T18:48:25.634Z,16.33
2019-05-25T18:51:15.727Z,16.20
2019-05-25T18:54:05.740Z,16.16
2019-05-25T18:56:55.579Z,16.08
2019-05-25T18:59:45.436Z,15.98
2019-05-25T19:02:35.232Z,15.95
2019-05-25T19:05:25.103Z,16.03
2019-05-25T19:08:15.022Z,16.08
2019-05-25T19:11:04.841Z,16.05
2019-05-25T19:13:55.150Z,15.94
2019-05-25T19:16:44.998Z,15.86
2019-05-25T19:19:34.820Z,15.85
2019-05-25T19:22:24.587Z,15.92
2019-05-25T19:25:14.731Z,15.99
2019-05-25T19:30:48.151Z,15.82
2019-05-25T19:33:37.908Z,15.88
2019-05-25T19:36:20.544Z,15.61
2019-05-25T19:39:10.292Z,15.42
2019-05-25T19:41:52.885Z,15.43
2019-05-25T19:44:42.630Z,15.41
2019-05-25T19:47:25.300Z,15.18
2019-05-25T19:50:15.316Z,15.46
2019-05-25T19:52:58.909Z,15.34
2019-05-25T19:55:29.550Z,15.08
2019-05-25T19:58:19.251Z,15.16
2019-05-25T20:01:03.392Z,15.16
2019-05-25T20:03:57.197Z,15.09
2019-05-25T20:06:37.284Z,15.03
2019-05-25T20:09:27.144Z,15.08
2019-05-25T20:12:16.923Z,15.01
2019-05-25T20:18:03.792Z,15.05
2019-05-25T20:20:53.553Z,15.17
2019-05-25T20:26:39.033Z,15.12
2019-05-25T20:29:09.904Z,15.09
2019-05-25T20:31:40.541Z,15.14
2019-05-25T20:34:30.288Z,15.02
2019-05-25T20:37:14.649Z,14.91
2019-05-25T20:39:58.810Z,14.86
2019-05-25T20:54:42.864Z,14.73
2019-05-25T20:57:32.808Z,14.82
2019-05-25T21:00:24.272Z,14.83
2019-05-25T21:03:07.610Z,14.76
2019-05-25T21:05:57.417Z,14.75
2019-05-25T21:08:47.241Z,14.63
2019-05-25T21:11:37.447Z,14.64
2019-05-25T21:14:27.174Z,14.57
2019-05-25T21:17:16.978Z,14.51
2019-05-25T21:20:06.821Z,14.47
2019-05-25T21:23:09.361Z,14.39
2019-05-25T21:25:51.746Z,14.37
2019-05-25T21:28:41.473Z,14.40
2019-05-25T21:31:24.084Z,14.33
2019-05-25T21:34:14.293Z,14.27
2019-05-25T21:36:56.662Z,14.30
2019-05-25T21:39:46.353Z,14.29
2019-05-25T21:42:29.013Z,14.12
2019-05-25T21:45:18.859Z,14.06
2019-05-25T21:47:49.672Z,13.99
2019-05-25T21:50:58.510Z,14.01
2019-05-25T21:53:41.501Z,14.02
2019-05-25T21:56:31.205Z,13.43
2019-05-25T21:59:13.529Z,13.21
2019-05-25T22:02:03.303Z,13.00
2019-05-25T22:04:48.669Z,13.19
2019-05-25T22:10:39.485Z,13.35
2019-05-25T22:13:29.205Z,13.25
2019-05-25T22:16:11.814Z,13.01
2019-05-25T22:19:01.550Z,12.73
2019-05-25T22:21:46.045Z,12.60
2019-05-25T22:24:35.581Z,12.77
2019-05-25T22:27:18.361Z,12.96
2019-05-25T22:30:08.137Z,13.17
2019-05-25T22:32:50.128Z,13.19
2019-05-25T22:35:39.865Z,13.01
2019-05-25T22:41:13.815Z,13.29
2019-05-25T22:43:44.596Z,13.46
2019-05-25T22:46:34.299Z,13.54
2019-05-25T22:49:18.331Z,13.39
2019-05-25T22:52:02.210Z,13.68
2019-05-25T22:54:45.131Z,13.68
2019-05-25T22:57:34.874Z,13.58
2019-05-25T23:00:19.498Z,13.73
2019-05-25T23:03:03.811Z,13.72
2019-05-25T23:05:53.666Z,13.69
2019-05-25T23:08:43.570Z,13.76
2019-05-25T23:11:33.348Z,13.73
2019-05-25T23:14:23.170Z,13.63
2019-05-25T23:17:13.013Z,13.60
2019-05-25T23:20:02.816Z,13.75
2019-05-25T23:22:52.696Z,13.64
2019-05-25T23:28:46.173Z,13.68
2019-05-25T23:31:28.919Z,13.53
2019-05-25T23:34:18.654Z,13.41
2019-05-25T23:37:14.240Z,13.21
2019-05-25T23:39:52.151Z,13.50
2019-05-25T23:45:45.533Z,13.36
2019-05-25T23:48:28.024Z,13.40
2019-05-25T23:54:23.443Z,13.49
2019-05-25T23:57:06.289Z,13.57
2019-05-25T23:59:57.017Z,13.51
